createdAt,value
2022-09-13T00:01:45.544Z,15.40
2022-09-13T00:04:12.436Z,15.40
2022-09-13T00:06:39.126Z,15.37
2022-09-13T00:09:05.822Z,15.37
2022-09-13T00:11:32.514Z,15.37
2022-09-13T00:13:59.404Z,15.38
2022-09-13T00:16:27.745Z,15.36
2022-09-13T00:18:54.638Z,15.35
2022-09-13T00:21:22.514Z,15.34
2022-09-13T00:23:51.158Z,15.33
2022-09-13T00:26:28.610Z,15.32
2022-09-13T00:28:57.816Z,15.33
2022-09-13T00:31:26.543Z,15.30
2022-09-13T00:33:53.556Z,15.28
2022-09-13T00:36:20.241Z,15.30
2022-09-13T00:38:46.983Z,15.28
2022-09-13T00:41:16.547Z,15.28
2022-09-13T00:43:46.175Z,15.26
2022-09-13T00:46:43.007Z,15.24
2022-09-13T00:49:14.583Z,15.22
2022-09-13T00:51:43.021Z,15.20
2022-09-13T00:54:09.989Z,15.23
2022-09-13T00:56:40.584Z,15.17
2022-09-13T00:59:12.659Z,15.16
2022-09-13T01:01:46.732Z,15.12
2022-09-13T01:04:13.741Z,15.09
2022-09-13T01:06:41.545Z,15.08
2022-09-13T01:09:08.567Z,15.09
2022-09-13T01:11:45.959Z,15.08
2022-09-13T01:14:12.896Z,15.06
2022-09-13T01:16:39.597Z,15.02
2022-09-13T01:19:06.361Z,14.97
2022-09-13T01:22:10.131Z,14.96
2022-09-13T01:24:36.792Z,14.93
2022-09-13T01:27:22.137Z,14.88
2022-09-13T01:29:58.734Z,14.90
2022-09-13T01:32:41.656Z,14.86
2022-09-13T01:35:24.145Z,14.85
2022-09-13T01:37:55.713Z,14.83
2022-09-13T01:41:04.509Z,14.80
2022-09-13T01:43:35.433Z,14.75
2022-09-13T01:46:11.226Z,14.72
2022-09-13T01:49:03.739Z,14.71
2022-09-13T01:51:34.535Z,14.69
2022-09-13T01:54:11.226Z,14.68
2022-09-13T01:56:42.958Z,14.64
2022-09-13T01:59:22.519Z,14.62
2022-09-13T02:01:58.965Z,14.60
2022-09-13T02:04:29.195Z,14.59
2022-09-13T02:07:09.519Z,14.60
2022-09-13T02:09:42.633Z,14.58
2022-09-13T02:12:14.636Z,14.55
2022-09-13T02:14:44.598Z,14.54
2022-09-13T02:17:24.440Z,14.53
2022-09-13T02:20:03.038Z,14.50
2022-09-13T02:22:34.105Z,14.48
2022-09-13T02:25:06.530Z,14.54
2022-09-13T02:27:34.527Z,14.56
2022-09-13T02:30:05.685Z,14.51
2022-09-13T02:32:37.453Z,14.50
2022-09-13T02:35:04.141Z,14.49
2022-09-13T02:37:33.206Z,14.49
2022-09-13T02:40:06.687Z,14.48
2022-09-13T02:42:42.067Z,14.45
2022-09-13T02:45:09.525Z,14.44
2022-09-13T02:47:50.283Z,14.41
2022-09-13T02:50:35.278Z,14.41
2022-09-13T02:53:11.135Z,14.41
2022-09-13T02:55:37.978Z,14.43
2022-09-13T02:58:14.625Z,14.42
2022-09-13T03:00:41.523Z,14.40
2022-09-13T03:03:11.022Z,14.40
2022-09-13T03:05:37.951Z,14.43
2022-09-13T03:08:06.117Z,14.41
2022-09-13T03:10:54.002Z,14.40
2022-09-13T03:13:23.705Z,14.40
2022-09-13T03:15:50.972Z,14.39
2022-09-13T03:18:33.115Z,14.37
2022-09-13T03:21:36.800Z,14.35
2022-09-13T03:24:23.689Z,14.33
2022-09-13T03:27:18.435Z,14.33
2022-09-13T03:30:07.937Z,14.33
2022-09-13T03:32:47.000Z,14.31
2022-09-13T03:35:23.033Z,14.30
2022-09-13T03:37:57.292Z,14.30
2022-09-13T03:40:36.309Z,14.29
2022-09-13T03:43:18.716Z,14.27
2022-09-13T03:45:49.596Z,14.24
2022-09-13T03:48:16.905Z,14.23
2022-09-13T03:50:45.885Z,14.24
2022-09-13T03:53:15.516Z,14.21
2022-09-13T03:55:43.471Z,14.22
2022-09-13T03:58:15.480Z,14.20
2022-09-13T04:00:42.525Z,14.26
2022-09-13T04:03:09.586Z,14.30
2022-09-13T04:05:36.395Z,14.34
2022-09-13T04:08:05.887Z,14.35
2022-09-13T04:10:33.390Z,14.39
2022-09-13T04:13:00.576Z,14.40
2022-09-13T04:15:28.167Z,14.41
2022-09-13T04:17:54.912Z,14.47
2022-09-13T04:20:22.241Z,14.52
2022-09-13T04:22:53.274Z,14.53
2022-09-13T04:25:20.712Z,14.56
2022-09-13T04:27:47.386Z,14.57
2022-09-13T04:30:14.528Z,14.59
2022-09-13T04:32:44.765Z,14.60
2022-09-13T04:35:12.032Z,14.66
2022-09-13T04:37:39.288Z,14.67
2022-09-13T04:40:09.526Z,14.69
2022-09-13T04:42:36.338Z,14.66
2022-09-13T04:45:03.437Z,14.74
2022-09-13T04:47:31.050Z,14.80
2022-09-13T04:49:57.788Z,14.47
2022-09-13T04:52:24.477Z,14.51
2022-09-13T04:54:51.200Z,14.66
2022-09-13T04:57:17.967Z,14.64
2022-09-13T04:59:44.765Z,14.69
2022-09-13T05:02:11.585Z,14.57
2022-09-13T05:04:38.649Z,14.55
2022-09-13T05:07:05.316Z,14.73
2022-09-13T05:09:32.214Z,14.83
2022-09-13T05:11:58.871Z,14.60
2022-09-13T05:14:25.692Z,14.61
2022-09-13T05:16:52.681Z,14.94
2022-09-13T05:19:19.353Z,15.02
2022-09-13T05:21:46.016Z,15.14
2022-09-13T05:24:12.702Z,15.10
2022-09-13T05:26:39.396Z,15.16
2022-09-13T05:29:06.079Z,15.00
2022-09-13T05:31:35.522Z,15.07
2022-09-13T05:34:06.727Z,15.17
2022-09-13T05:36:33.674Z,15.37
2022-09-13T05:39:28.473Z,15.47
2022-09-13T05:41:48.380Z,15.55
2022-09-13T05:44:15.064Z,15.62
2022-09-13T05:46:42.990Z,15.60
2022-09-13T05:49:09.671Z,15.67
2022-09-13T05:51:36.575Z,15.75
2022-09-13T05:54:03.561Z,15.74
2022-09-13T05:56:32.199Z,15.73
2022-09-13T05:58:59.273Z,15.71
2022-09-13T06:01:27.895Z,15.78
2022-09-13T06:03:56.517Z,15.82
2022-09-13T06:06:24.148Z,15.59
2022-09-13T06:08:57.706Z,15.69
2022-09-13T06:11:26.300Z,15.79
2022-09-13T06:13:53.389Z,15.87
2022-09-13T06:16:20.407Z,15.92
2022-09-13T06:18:47.089Z,15.97
2022-09-13T06:21:18.232Z,16.01
2022-09-13T06:23:54.632Z,16.02
2022-09-13T06:26:23.573Z,16.03
2022-09-13T06:28:51.765Z,16.04
2022-09-13T06:31:20.537Z,16.08
2022-09-13T06:33:47.505Z,16.10
2022-09-13T06:36:18.804Z,16.08
2022-09-13T06:38:49.117Z,16.13
2022-09-13T06:41:20.758Z,16.17
2022-09-13T06:43:48.172Z,16.11
2022-09-13T06:46:20.475Z,16.16
2022-09-13T06:48:50.965Z,16.22
2022-09-13T06:51:19.570Z,16.29
2022-09-13T06:53:48.541Z,16.37
2022-09-13T06:56:17.527Z,16.21
2022-09-13T06:58:46.168Z,16.15
2022-09-13T07:01:18.864Z,15.88
2022-09-13T07:03:48.186Z,16.08
2022-09-13T07:06:22.412Z,16.25
2022-09-13T07:08:51.590Z,16.33
2022-09-13T07:11:21.061Z,16.35
2022-09-13T07:13:52.377Z,16.22
2022-09-13T07:16:21.307Z,15.86
2022-09-13T07:18:52.619Z,15.77
2022-09-13T07:21:19.479Z,15.93
2022-09-13T07:23:46.233Z,16.07
2022-09-13T07:26:12.921Z,16.32
2022-09-13T07:28:41.278Z,16.28
2022-09-13T07:31:10.840Z,16.49
2022-09-13T07:33:39.029Z,16.38
2022-09-13T07:36:06.889Z,16.35
2022-09-13T07:38:34.986Z,16.30
2022-09-13T07:41:02.094Z,16.41
2022-09-13T07:43:29.384Z,16.40
2022-09-13T07:46:10.258Z,16.44
2022-09-13T07:48:39.522Z,16.21
2022-09-13T07:51:08.832Z,16.17
2022-09-13T07:53:36.844Z,16.35
2022-09-13T07:56:14.952Z,16.51
2022-09-13T07:58:43.416Z,16.62
2022-09-13T08:01:16.132Z,16.77
2022-09-13T08:03:43.228Z,16.80
2022-09-13T08:06:10.202Z,16.86
2022-09-13T08:08:37.579Z,16.92
2022-09-13T08:11:06.268Z,17.04
2022-09-13T08:13:33.286Z,17.14
2022-09-13T08:16:05.058Z,17.07
2022-09-13T08:18:32.125Z,17.06
2022-09-13T08:20:59.886Z,17.08
2022-09-13T08:23:27.489Z,17.29
2022-09-13T08:25:54.292Z,17.37
2022-09-13T08:28:26.784Z,17.28
2022-09-13T08:30:54.282Z,17.35
2022-09-13T08:33:21.196Z,17.44
2022-09-13T08:35:52.622Z,17.59
2022-09-13T08:38:19.965Z,17.68
2022-09-13T08:40:55.816Z,17.79
2022-09-13T08:43:46.294Z,17.75
2022-09-13T08:46:27.148Z,17.86
2022-09-13T08:48:56.807Z,18.24
2022-09-13T08:51:39.289Z,18.58
2022-09-13T08:54:06.420Z,18.65
2022-09-13T08:56:42.624Z,18.51
2022-09-13T08:59:27.139Z,18.66
2022-09-13T09:02:18.646Z,18.91
2022-09-13T09:05:01.737Z,19.46
2022-09-13T09:07:31.935Z,19.65
2022-09-13T09:09:59.915Z,19.99
2022-09-13T09:12:32.746Z,20.24
2022-09-13T09:15:04.534Z,20.51
2022-09-13T09:18:04.965Z,20.35
2022-09-13T09:20:41.027Z,20.53
2022-09-13T09:23:30.457Z,20.54
2022-09-13T09:26:09.512Z,20.68
2022-09-13T09:28:36.187Z,20.77
2022-09-13T09:31:08.903Z,20.63
2022-09-13T09:34:08.884Z,20.92
2022-09-13T09:37:13.903Z,21.05
2022-09-13T09:39:40.946Z,21.02
2022-09-13T09:42:28.695Z,21.31
2022-09-13T09:44:58.646Z,21.54
2022-09-13T09:47:33.118Z,21.84
2022-09-13T09:50:09.457Z,22.19
2022-09-13T09:53:14.950Z,22.44
2022-09-13T09:56:01.146Z,22.88
2022-09-13T09:58:39.793Z,23.09
2022-09-13T10:01:25.930Z,23.30
2022-09-13T10:04:13.075Z,23.39
2022-09-13T10:06:41.256Z,23.32
2022-09-13T10:09:16.932Z,22.87
2022-09-13T10:11:58.279Z,22.81
2022-09-13T10:14:38.295Z,23.01
2022-09-13T10:17:06.594Z,22.95
2022-09-13T10:19:33.653Z,22.90
2022-09-13T10:22:02.632Z,22.87
2022-09-13T10:24:30.642Z,22.99
2022-09-13T10:26:58.551Z,22.87
2022-09-13T10:29:27.815Z,22.88
2022-09-13T10:31:57.913Z,22.96
2022-09-13T10:34:29.177Z,22.94
2022-09-13T10:37:21.587Z,22.73
2022-09-13T10:40:05.529Z,22.83
2022-09-13T10:42:32.650Z,22.81
2022-09-13T10:45:02.132Z,22.87
2022-09-13T10:47:40.259Z,22.56
2022-09-13T10:50:22.568Z,22.48
2022-09-13T10:52:59.877Z,22.40
2022-09-13T10:55:31.423Z,22.37
2022-09-13T10:58:07.503Z,22.41
2022-09-13T11:01:06.106Z,22.21
2022-09-13T11:03:38.695Z,21.96
2022-09-13T11:06:31.078Z,22.08
2022-09-13T11:09:19.254Z,21.89
2022-09-13T11:12:21.977Z,21.94
2022-09-13T11:15:05.175Z,21.93
2022-09-13T11:17:50.219Z,21.92
2022-09-13T11:20:27.408Z,21.81
2022-09-13T11:22:57.024Z,21.80
2022-09-13T11:25:38.219Z,21.73
2022-09-13T11:28:10.530Z,21.60
2022-09-13T11:31:03.539Z,21.61
2022-09-13T11:33:46.315Z,21.61
2022-09-13T11:36:24.870Z,21.49
2022-09-13T11:39:08.578Z,21.48
2022-09-13T11:41:48.515Z,21.50
2022-09-13T11:44:40.762Z,21.26
2022-09-13T11:47:26.438Z,21.25
2022-09-13T11:50:04.433Z,21.21
2022-09-13T11:53:24.218Z,21.20
2022-09-13T11:56:02.145Z,21.14
2022-09-13T11:58:35.619Z,21.13
2022-09-13T12:01:05.436Z,21.12
2022-09-13T12:03:50.703Z,21.16
2022-09-13T12:06:34.317Z,21.13
2022-09-13T12:09:07.119Z,21.17
2022-09-13T12:11:35.833Z,21.15
2022-09-13T12:14:05.920Z,21.13
2022-09-13T12:16:36.027Z,21.18
2022-09-13T12:19:17.607Z,21.19
2022-09-13T12:21:45.022Z,21.15
2022-09-13T12:24:17.104Z,21.17
2022-09-13T12:27:23.946Z,21.20
2022-09-13T12:29:53.675Z,21.23
2022-09-13T12:32:21.167Z,21.21
2022-09-13T12:34:58.681Z,21.19
2022-09-13T12:37:31.701Z,21.18
2022-09-13T12:40:18.773Z,21.07
2022-09-13T12:42:56.685Z,21.15
2022-09-13T12:45:50.978Z,21.04
2022-09-13T12:48:43.784Z,21.15
2022-09-13T12:51:40.462Z,21.14
2022-09-13T12:54:07.657Z,21.05
2022-09-13T12:56:46.007Z,20.98
2022-09-13T12:59:24.868Z,21.14
2022-09-13T13:01:52.422Z,21.21
2022-09-13T13:04:21.761Z,21.23
2022-09-13T13:06:57.627Z,21.26
2022-09-13T13:09:31.468Z,21.35
2022-09-13T13:11:58.663Z,21.34
2022-09-13T13:14:40.760Z,21.29
2022-09-13T13:17:44.922Z,21.24
2022-09-13T13:20:49.262Z,21.17
2022-09-13T13:23:38.551Z,21.20
2022-09-13T13:26:12.256Z,21.25
2022-09-13T13:28:48.215Z,21.30
2022-09-13T13:31:24.104Z,21.41
2022-09-13T13:34:14.137Z,21.34
2022-09-13T13:36:41.138Z,21.39
2022-09-13T13:39:10.400Z,21.45
2022-09-13T13:41:40.521Z,21.49
2022-09-13T13:44:19.871Z,21.50
2022-09-13T13:46:51.340Z,21.44
2022-09-13T13:49:30.288Z,21.36
2022-09-13T13:52:09.344Z,21.44
2022-09-13T13:54:42.166Z,21.49
2022-09-13T13:57:21.131Z,21.62
2022-09-13T13:59:50.199Z,21.64
2022-09-13T14:02:19.277Z,21.74
2022-09-13T14:05:18.952Z,21.71
2022-09-13T14:08:19.807Z,21.58
2022-09-13T14:11:31.545Z,21.57
2022-09-13T14:14:23.655Z,21.57
2022-09-13T14:17:00.526Z,21.77
2022-09-13T14:19:28.783Z,21.56
2022-09-13T14:22:15.740Z,21.65
2022-09-13T14:24:48.888Z,21.54
2022-09-13T14:27:23.804Z,21.43
2022-09-13T14:29:55.898Z,21.50
2022-09-13T14:32:26.885Z,21.55
2022-09-13T14:35:01.351Z,21.67
2022-09-13T14:37:31.872Z,21.71
2022-09-13T14:40:01.721Z,21.67
2022-09-13T14:42:39.503Z,21.70
2022-09-13T14:45:06.555Z,21.80
2022-09-13T14:47:53.425Z,21.76
2022-09-13T14:50:27.560Z,21.82
2022-09-13T14:52:54.218Z,21.83
2022-09-13T14:55:43.462Z,21.82
2022-09-13T14:58:23.333Z,21.82
2022-09-13T15:00:53.453Z,21.80
2022-09-13T15:03:20.383Z,21.84
2022-09-13T15:05:59.902Z,21.85
2022-09-13T15:08:32.823Z,21.87
2022-09-13T15:11:06.933Z,21.74
2022-09-13T15:13:34.163Z,21.70
2022-09-13T15:16:00.955Z,21.79
2022-09-13T15:18:36.147Z,21.74
2022-09-13T15:21:07.553Z,21.79
2022-09-13T15:23:39.601Z,21.74
2022-09-13T15:26:13.160Z,21.60
2022-09-13T15:28:48.962Z,21.51
2022-09-13T15:31:23.400Z,21.44
2022-09-13T15:34:13.958Z,21.49
2022-09-13T15:36:40.673Z,21.54
2022-09-13T15:39:17.576Z,21.52
2022-09-13T15:41:59.189Z,21.53
2022-09-13T15:44:29.961Z,21.60
2022-09-13T15:47:05.083Z,21.49
2022-09-13T15:49:32.361Z,21.44
2022-09-13T15:52:03.312Z,21.41
2022-09-13T15:54:34.912Z,21.35
2022-09-13T15:57:01.822Z,21.27
2022-09-13T15:59:28.612Z,21.21
2022-09-13T16:01:56.046Z,21.05
2022-09-13T16:04:23.224Z,21.13
2022-09-13T16:06:49.988Z,21.01
2022-09-13T16:09:20.845Z,20.85
2022-09-13T16:11:48.838Z,20.97
2022-09-13T16:14:15.885Z,21.08
2022-09-13T16:16:43.017Z,21.07
2022-09-13T16:19:16.900Z,21.12
2022-09-13T16:21:43.628Z,20.95
2022-09-13T16:24:11.538Z,20.97
2022-09-13T16:26:38.788Z,21.07
2022-09-13T16:29:05.792Z,21.09
2022-09-13T16:31:32.652Z,21.12
2022-09-13T16:33:59.341Z,21.11
2022-09-13T16:36:28.914Z,21.11
2022-09-13T16:38:56.459Z,21.07
2022-09-13T16:41:23.415Z,21.03
2022-09-13T16:43:51.413Z,21.04
2022-09-13T16:46:18.307Z,21.01
2022-09-13T16:48:45.181Z,20.95
2022-09-13T16:51:12.935Z,20.95
2022-09-13T16:53:41.624Z,20.90
2022-09-13T16:56:16.538Z,20.85
2022-09-13T16:58:46.826Z,20.80
2022-09-13T17:01:15.730Z,20.78
2022-09-13T17:03:42.742Z,20.77
2022-09-13T17:06:11.828Z,20.77
2022-09-13T17:08:40.213Z,20.65
2022-09-13T17:11:12.676Z,20.68
2022-09-13T17:13:40.803Z,20.66
2022-09-13T17:16:20.731Z,20.63
2022-09-13T17:18:47.623Z,20.57
2022-09-13T17:21:14.321Z,20.51
2022-09-13T17:23:41.062Z,20.48
2022-09-13T17:26:07.787Z,20.44
2022-09-13T17:28:36.714Z,20.39
2022-09-13T17:31:03.520Z,20.33
2022-09-13T17:33:30.254Z,20.31
2022-09-13T17:36:05.977Z,20.24
2022-09-13T17:38:33.073Z,20.15
2022-09-13T17:41:05.746Z,20.12
2022-09-13T17:43:33.781Z,20.09
2022-09-13T17:46:05.695Z,20.05
2022-09-13T17:48:32.420Z,19.98
2022-09-13T17:51:07.976Z,19.97
2022-09-13T17:53:55.828Z,19.89
2022-09-13T17:56:31.437Z,19.84
2022-09-13T17:59:10.224Z,19.79
2022-09-13T18:01:39.429Z,19.73
2022-09-13T18:04:07.927Z,19.70
2022-09-13T18:06:36.530Z,19.64
2022-09-13T18:09:08.161Z,19.60
2022-09-13T18:11:35.470Z,19.55
2022-09-13T18:14:02.862Z,19.53
2022-09-13T18:16:30.200Z,19.48
2022-09-13T18:18:57.068Z,19.44
2022-09-13T18:21:25.424Z,19.40
2022-09-13T18:23:55.620Z,19.35
2022-09-13T18:26:23.531Z,19.33
2022-09-13T18:28:56.056Z,19.27
2022-09-13T18:31:23.846Z,19.20
2022-09-13T18:33:58.320Z,19.23
2022-09-13T18:36:26.234Z,19.20
2022-09-13T18:38:53.905Z,19.19
2022-09-13T18:41:23.533Z,19.17
2022-09-13T18:43:55.437Z,19.16
2022-09-13T18:46:25.227Z,19.10
2022-09-13T18:48:54.382Z,19.05
2022-09-13T18:51:35.532Z,19.01
2022-09-13T18:54:03.151Z,19.00
2022-09-13T18:56:29.937Z,18.96
2022-09-13T18:58:56.965Z,18.90
2022-09-13T19:01:26.989Z,18.95
2022-09-13T19:04:02.193Z,18.94
2022-09-13T19:06:40.706Z,18.88
2022-09-13T19:09:08.501Z,18.87
2022-09-13T19:11:47.211Z,18.86
2022-09-13T19:14:23.362Z,18.82
2022-09-13T19:16:51.280Z,18.80
2022-09-13T19:19:18.041Z,18.79
2022-09-13T19:21:45.022Z,18.78
2022-09-13T19:24:18.447Z,18.75
2022-09-13T19:26:47.484Z,18.73
2022-09-13T19:29:15.798Z,18.68
2022-09-13T19:31:47.688Z,18.65
2022-09-13T19:34:15.602Z,18.63
2022-09-13T19:36:44.318Z,18.57
2022-09-13T19:39:11.219Z,18.59
2022-09-13T19:41:38.844Z,18.55
2022-09-13T19:44:06.006Z,18.56
2022-09-13T19:46:35.618Z,18.50
2022-09-13T19:49:02.941Z,18.50
2022-09-13T19:51:35.798Z,18.45
2022-09-13T19:54:03.957Z,18.45
2022-09-13T19:56:34.409Z,18.42
2022-09-13T19:59:01.829Z,18.38
2022-09-13T20:01:31.822Z,18.35
2022-09-13T20:04:03.391Z,18.32
2022-09-13T20:06:44.749Z,18.25
2022-09-13T20:09:13.191Z,18.25
2022-09-13T20:11:42.550Z,18.22
2022-09-13T20:14:11.272Z,18.18
2022-09-13T20:16:39.614Z,18.16
2022-09-13T20:19:29.540Z,18.15
2022-09-13T20:21:55.698Z,18.12
2022-09-13T20:24:23.313Z,18.11
2022-09-13T20:26:52.305Z,18.05
2022-09-13T20:29:19.524Z,18.01
2022-09-13T20:31:47.274Z,17.97
2022-09-13T20:34:17.383Z,17.98
2022-09-13T20:36:45.673Z,17.96
2022-09-13T20:39:12.514Z,17.95
2022-09-13T20:41:39.253Z,17.92
2022-09-13T20:44:07.690Z,17.88
2022-09-13T20:46:34.435Z,17.88
2022-09-13T20:49:02.555Z,17.87
2022-09-13T20:51:33.942Z,17.84
2022-09-13T20:54:01.382Z,17.83
2022-09-13T20:56:29.046Z,17.83
2022-09-13T20:58:58.405Z,17.80
2022-09-13T21:01:26.672Z,17.79
2022-09-13T21:03:54.707Z,17.78
2022-09-13T21:06:27.329Z,17.78
2022-09-13T21:08:56.516Z,17.77
2022-09-13T21:11:34.042Z,17.76
2022-09-13T21:14:05.515Z,17.74
2022-09-13T21:16:34.433Z,17.69
2022-09-13T21:19:01.497Z,17.68
2022-09-13T21:21:30.661Z,17.65
2022-09-13T21:23:58.500Z,17.63
2022-09-13T21:26:27.046Z,17.60
2022-09-13T21:28:54.797Z,17.56
2022-09-13T21:31:25.206Z,17.53
2022-09-13T21:33:56.859Z,17.50
2022-09-13T21:36:24.225Z,17.45
2022-09-13T21:38:52.035Z,17.45
2022-09-13T21:41:18.899Z,17.44
2022-09-13T21:43:45.722Z,17.41
2022-09-13T21:46:16.820Z,17.37
2022-09-13T21:48:46.547Z,17.35
2022-09-13T21:51:18.357Z,17.35
2022-09-13T21:53:46.210Z,17.28
2022-09-13T21:56:15.408Z,17.25
2022-09-13T21:58:42.712Z,17.19
2022-09-13T22:01:14.354Z,17.18
2022-09-13T22:03:43.270Z,17.12
2022-09-13T22:06:19.639Z,17.12
2022-09-13T22:08:49.333Z,17.09
2022-09-13T22:11:19.908Z,17.04
2022-09-13T22:13:47.732Z,16.99
2022-09-13T22:16:21.300Z,16.94
2022-09-13T22:18:57.730Z,16.87
2022-09-13T22:21:27.409Z,16.84
2022-09-13T22:23:54.566Z,16.78
2022-09-13T22:26:23.935Z,16.76
2022-09-13T22:28:51.296Z,16.70
2022-09-13T22:31:20.749Z,16.64
2022-09-13T22:33:47.530Z,16.63
2022-09-13T22:36:15.834Z,16.59
2022-09-13T22:38:43.691Z,16.58
2022-09-13T22:41:14.166Z,16.56
2022-09-13T22:43:41.754Z,16.50
2022-09-13T22:46:09.841Z,16.50
2022-09-13T22:48:36.707Z,16.45
2022-09-13T22:51:06.173Z,16.43
2022-09-13T22:53:35.170Z,16.42
2022-09-13T22:56:05.989Z,16.39
2022-09-13T22:58:32.716Z,16.35
2022-09-13T23:01:04.750Z,16.33
2022-09-13T23:03:31.938Z,16.28
2022-09-13T23:05:58.619Z,16.27
2022-09-13T23:08:28.389Z,16.25
2022-09-13T23:10:56.159Z,16.22
2022-09-13T23:13:22.939Z,16.21
2022-09-13T23:15:50.085Z,16.16
2022-09-13T23:18:16.781Z,16.14
2022-09-13T23:20:43.505Z,16.09
2022-09-13T23:23:11.254Z,16.10
2022-09-13T23:25:37.980Z,16.08
2022-09-13T23:28:04.699Z,16.04
2022-09-13T23:30:31.354Z,16.04
2022-09-13T23:32:58.105Z,16.00
2022-09-13T23:35:24.866Z,15.96
2022-09-13T23:37:51.550Z,15.94
2022-09-13T23:40:18.299Z,15.92
2022-09-13T23:42:44.997Z,15.92
2022-09-13T23:45:12.272Z,15.90
2022-09-13T23:47:39.085Z,15.90
2022-09-13T23:50:06.163Z,15.90
2022-09-13T23:52:33.051Z,15.89
2022-09-13T23:55:00.619Z,15.86
2022-09-13T23:57:27.321Z,15.86
2022-09-13T23:59:53.970Z,15.81
